sensor_id;sensor_type;location;lat;lon;timestamp;P1;durP1;ratioP1;P2;durP2;ratioP2
55114;SDS011;41010;53.252;5.786;2022-07-19T00:00:22;10.45;;;6.00;;
55114;SDS011;41010;53.252;5.786;2022-07-19T00:02:50;10.25;;;5.93;;
55114;SDS011;41010;53.252;5.786;2022-07-19T00:05:17;8.02;;;5.75;;
55114;SDS011;41010;53.252;5.786;2022-07-19T00:07:45;8.48;;;6.03;;
55114;SDS011;41010;53.252;5.786;2022-07-19T00:10:12;7.60;;;5.93;;
55114;SDS011;41010;53.252;5.786;2022-07-19T00:12:40;8.65;;;5.90;;
55114;SDS011;41010;53.252;5.786;2022-07-19T00:15:10;8.23;;;6.35;;
55114;SDS011;41010;53.252;5.786;2022-07-19T00:17:38;9.77;;;5.75;;
55114;SDS011;41010;53.252;5.786;2022-07-19T00:20:06;11.30;;;6.32;;
55114;SDS011;41010;53.252;5.786;2022-07-19T00:22:34;10.85;;;5.88;;
55114;SDS011;41010;53.252;5.786;2022-07-19T00:25:02;10.98;;;6.40;;
55114;SDS011;41010;53.252;5.786;2022-07-19T00:27:30;9.88;;;6.45;;
55114;SDS011;41010;53.252;5.786;2022-07-19T00:29:57;9.93;;;6.15;;
55114;SDS011;41010;53.252;5.786;2022-07-19T00:32:25;8.85;;;6.70;;
55114;SDS011;41010;53.252;5.786;2022-07-19T00:34:53;9.57;;;6.65;;
55114;SDS011;41010;53.252;5.786;2022-07-19T00:37:20;9.35;;;6.40;;
55114;SDS011;41010;53.252;5.786;2022-07-19T00:39:47;10.43;;;6.90;;
55114;SDS011;41010;53.252;5.786;2022-07-19T00:42:14;12.52;;;6.68;;
55114;SDS011;41010;53.252;5.786;2022-07-19T00:44:41;10.77;;;6.50;;
55114;SDS011;41010;53.252;5.786;2022-07-19T00:47:08;13.27;;;6.50;;
55114;SDS011;41010;53.252;5.786;2022-07-19T00:49:37;16.42;;;7.43;;
55114;SDS011;41010;53.252;5.786;2022-07-19T00:52:04;10.52;;;6.32;;
55114;SDS011;41010;53.252;5.786;2022-07-19T00:54:33;11.88;;;6.45;;
55114;SDS011;41010;53.252;5.786;2022-07-19T00:57:02;9.48;;;6.82;;
55114;SDS011;41010;53.252;5.786;2022-07-19T00:59:29;12.05;;;7.03;;
55114;SDS011;41010;53.252;5.786;2022-07-19T01:01:58;11.05;;;6.68;;
55114;SDS011;41010;53.252;5.786;2022-07-19T01:04:25;8.77;;;7.00;;
55114;SDS011;41010;53.252;5.786;2022-07-19T01:06:54;9.98;;;6.88;;
55114;SDS011;41010;53.252;5.786;2022-07-19T01:09:21;12.40;;;7.00;;
55114;SDS011;41010;53.252;5.786;2022-07-19T01:11:48;10.93;;;7.00;;
55114;SDS011;41010;53.252;5.786;2022-07-19T01:14:16;8.75;;;7.00;;
55114;SDS011;41010;53.252;5.786;2022-07-19T01:16:43;10.85;;;6.88;;
55114;SDS011;41010;53.252;5.786;2022-07-19T01:19:11;12.23;;;6.72;;
55114;SDS011;41010;53.252;5.786;2022-07-19T01:21:40;12.27;;;7.35;;
55114;SDS011;41010;53.252;5.786;2022-07-19T01:24:07;8.70;;;6.70;;
55114;SDS011;41010;53.252;5.786;2022-07-19T01:26:34;10.30;;;6.90;;
55114;SDS011;41010;53.252;5.786;2022-07-19T01:29:02;10.43;;;6.65;;
55114;SDS011;41010;53.252;5.786;2022-07-19T01:31:29;10.38;;;7.22;;
55114;SDS011;41010;53.252;5.786;2022-07-19T01:33:56;13.07;;;7.05;;
55114;SDS011;41010;53.252;5.786;2022-07-19T01:36:23;11.50;;;7.05;;
55114;SDS011;41010;53.252;5.786;2022-07-19T01:38:52;10.27;;;7.00;;
55114;SDS011;41010;53.252;5.786;2022-07-19T01:41:19;11.20;;;6.43;;
55114;SDS011;41010;53.252;5.786;2022-07-19T01:43:46;8.10;;;6.53;;
55114;SDS011;41010;53.252;5.786;2022-07-19T01:46:14;10.45;;;7.05;;
55114;SDS011;41010;53.252;5.786;2022-07-19T01:48:41;9.38;;;7.15;;
55114;SDS011;41010;53.252;5.786;2022-07-19T01:51:08;11.63;;;6.60;;
55114;SDS011;41010;53.252;5.786;2022-07-19T01:53:36;9.70;;;7.13;;
55114;SDS011;41010;53.252;5.786;2022-07-19T01:56:05;9.95;;;6.88;;
55114;SDS011;41010;53.252;5.786;2022-07-19T01:58:32;13.50;;;7.45;;
55114;SDS011;41010;53.252;5.786;2022-07-19T02:00:59;11.65;;;7.25;;
55114;SDS011;41010;53.252;5.786;2022-07-19T02:03:27;11.32;;;6.97;;
55114;SDS011;41010;53.252;5.786;2022-07-19T02:05:54;16.00;;;7.43;;
55114;SDS011;41010;53.252;5.786;2022-07-19T02:08:21;12.35;;;7.07;;
55114;SDS011;41010;53.252;5.786;2022-07-19T02:10:49;12.48;;;7.38;;
55114;SDS011;41010;53.252;5.786;2022-07-19T02:13:18;15.00;;;7.97;;
55114;SDS011;41010;53.252;5.786;2022-07-19T02:15:45;10.48;;;8.00;;
55114;SDS011;41010;53.252;5.786;2022-07-19T02:18:13;11.30;;;7.38;;
55114;SDS011;41010;53.252;5.786;2022-07-19T02:20:41;9.70;;;6.55;;
55114;SDS011;41010;53.252;5.786;2022-07-19T02:23:08;8.70;;;6.82;;
55114;SDS011;41010;53.252;5.786;2022-07-19T02:25:35;14.60;;;7.35;;
55114;SDS011;41010;53.252;5.786;2022-07-19T02:28:02;10.45;;;7.15;;
55114;SDS011;41010;53.252;5.786;2022-07-19T02:30:31;11.57;;;7.28;;
55114;SDS011;41010;53.252;5.786;2022-07-19T02:32:58;14.68;;;7.18;;
55114;SDS011;41010;53.252;5.786;2022-07-19T02:35:25;14.52;;;7.30;;
55114;SDS011;41010;53.252;5.786;2022-07-19T02:37:52;12.82;;;7.45;;
55114;SDS011;41010;53.252;5.786;2022-07-19T02:40:20;10.48;;;7.28;;
55114;SDS011;41010;53.252;5.786;2022-07-19T02:42:47;11.68;;;7.18;;
55114;SDS011;41010;53.252;5.786;2022-07-19T02:45:14;12.88;;;7.80;;
55114;SDS011;41010;53.252;5.786;2022-07-19T02:47:43;11.00;;;7.43;;
55114;SDS011;41010;53.252;5.786;2022-07-19T02:50:12;12.35;;;7.10;;
55114;SDS011;41010;53.252;5.786;2022-07-19T02:52:39;10.75;;;7.18;;
55114;SDS011;41010;53.252;5.786;2022-07-19T02:55:07;15.43;;;7.97;;
55114;SDS011;41010;53.252;5.786;2022-07-19T02:57:34;10.10;;;7.00;;
55114;SDS011;41010;53.252;5.786;2022-07-19T03:00:01;11.75;;;7.38;;
55114;SDS011;41010;53.252;5.786;2022-07-19T03:02:29;10.38;;;6.68;;
55114;SDS011;41010;53.252;5.786;2022-07-19T03:04:57;15.80;;;6.70;;
55114;SDS011;41010;53.252;5.786;2022-07-19T03:07:24;15.00;;;6.75;;
55114;SDS011;41010;53.252;5.786;2022-07-19T03:09:52;11.32;;;7.30;;
55114;SDS011;41010;53.252;5.786;2022-07-19T03:12:19;9.30;;;6.80;;
55114;SDS011;41010;53.252;5.786;2022-07-19T03:14:46;12.95;;;6.93;;
55114;SDS011;41010;53.252;5.786;2022-07-19T03:17:13;10.57;;;6.70;;
55114;SDS011;41010;53.252;5.786;2022-07-19T03:19:40;9.95;;;6.93;;
55114;SDS011;41010;53.252;5.786;2022-07-19T03:22:09;12.82;;;7.20;;
55114;SDS011;41010;53.252;5.786;2022-07-19T03:24:36;11.60;;;6.78;;
55114;SDS011;41010;53.252;5.786;2022-07-19T03:27:03;11.55;;;6.80;;
55114;SDS011;41010;53.252;5.786;2022-07-19T03:29:31;9.65;;;6.18;;
55114;SDS011;41010;53.252;5.786;2022-07-19T03:31:58;12.15;;;6.70;;
55114;SDS011;41010;53.252;5.786;2022-07-19T03:34:25;9.85;;;7.15;;
55114;SDS011;41010;53.252;5.786;2022-07-19T03:36:54;12.38;;;7.15;;
55114;SDS011;41010;53.252;5.786;2022-07-19T03:39:22;12.18;;;7.32;;
55114;SDS011;41010;53.252;5.786;2022-07-19T03:41:49;9.43;;;7.10;;
55114;SDS011;41010;53.252;5.786;2022-07-19T03:44:17;11.15;;;7.32;;
55114;SDS011;41010;53.252;5.786;2022-07-19T03:46:44;10.95;;;7.15;;
55114;SDS011;41010;53.252;5.786;2022-07-19T03:49:11;11.63;;;7.40;;
55114;SDS011;41010;53.252;5.786;2022-07-19T03:51:38;11.52;;;7.20;;
55114;SDS011;41010;53.252;5.786;2022-07-19T03:54:05;11.60;;;6.65;;
55114;SDS011;41010;53.252;5.786;2022-07-19T03:56:34;11.23;;;7.13;;
55114;SDS011;41010;53.252;5.786;2022-07-19T03:59:01;12.15;;;6.70;;
55114;SDS011;41010;53.252;5.786;2022-07-19T04:01:29;12.95;;;6.95;;
55114;SDS011;41010;53.252;5.786;2022-07-19T04:03:57;11.02;;;6.70;;
55114;SDS011;41010;53.252;5.786;2022-07-19T04:06:24;10.13;;;6.82;;
55114;SDS011;41010;53.252;5.786;2022-07-19T04:08:51;11.52;;;6.95;;
55114;SDS011;41010;53.252;5.786;2022-07-19T04:11:18;9.90;;;6.93;;
55114;SDS011;41010;53.252;5.786;2022-07-19T04:13:47;11.43;;;6.75;;
55114;SDS011;41010;53.252;5.786;2022-07-19T04:16:14;10.43;;;6.40;;
55114;SDS011;41010;53.252;5.786;2022-07-19T04:18:41;10.50;;;6.80;;
55114;SDS011;41010;53.252;5.786;2022-07-19T04:21:08;10.93;;;7.03;;
55114;SDS011;41010;53.252;5.786;2022-07-19T04:23:36;14.48;;;7.43;;
55114;SDS011;41010;53.252;5.786;2022-07-19T04:26:03;9.43;;;7.30;;
55114;SDS011;41010;53.252;5.786;2022-07-19T04:28:30;13.48;;;6.90;;
55114;SDS011;41010;53.252;5.786;2022-07-19T04:30:59;10.77;;;6.78;;
55114;SDS011;41010;53.252;5.786;2022-07-19T04:33:26;15.85;;;6.88;;
55114;SDS011;41010;53.252;5.786;2022-07-19T04:35:53;13.23;;;6.65;;
55114;SDS011;41010;53.252;5.786;2022-07-19T04:38:20;9.20;;;6.20;;
55114;SDS011;41010;53.252;5.786;2022-07-19T04:40:48;9.80;;;7.10;;
55114;SDS011;41010;53.252;5.786;2022-07-19T04:43:15;8.90;;;6.43;;
55114;SDS011;41010;53.252;5.786;2022-07-19T04:45:42;10.57;;;6.75;;
55114;SDS011;41010;53.252;5.786;2022-07-19T04:48:11;12.27;;;7.00;;
55114;SDS011;41010;53.252;5.786;2022-07-19T04:50:39;13.23;;;6.30;;
55114;SDS011;41010;53.252;5.786;2022-07-19T04:53:07;11.70;;;6.90;;
55114;SDS011;41010;53.252;5.786;2022-07-19T04:55:36;12.00;;;6.43;;
55114;SDS011;41010;53.252;5.786;2022-07-19T04:58:03;11.93;;;6.43;;
55114;SDS011;41010;53.252;5.786;2022-07-19T05:00:30;12.40;;;6.82;;
55114;SDS011;41010;53.252;5.786;2022-07-19T05:02:58;10.40;;;6.28;;
55114;SDS011;41010;53.252;5.786;2022-07-19T05:05:26;7.85;;;6.13;;
55114;SDS011;41010;53.252;5.786;2022-07-19T05:07:53;11.57;;;6.38;;
55114;SDS011;41010;53.252;5.786;2022-07-19T05:10:21;11.43;;;6.20;;
55114;SDS011;41010;53.252;5.786;2022-07-19T05:12:48;9.35;;;6.03;;
55114;SDS011;41010;53.252;5.786;2022-07-19T05:15:15;9.55;;;5.97;;
55114;SDS011;41010;53.252;5.786;2022-07-19T05:17:42;9.27;;;6.05;;
55114;SDS011;41010;53.252;5.786;2022-07-19T05:20:10;10.65;;;5.82;;
55114;SDS011;41010;53.252;5.786;2022-07-19T05:22:41;13.68;;;5.72;;
55114;SDS011;41010;53.252;5.786;2022-07-19T05:25:09;7.78;;;5.60;;
55114;SDS011;41010;53.252;5.786;2022-07-19T05:27:36;8.02;;;5.25;;
55114;SDS011;41010;53.252;5.786;2022-07-19T05:30:04;12.63;;;5.53;;
55114;SDS011;41010;53.252;5.786;2022-07-19T05:32:32;11.80;;;6.13;;
55114;SDS011;41010;53.252;5.786;2022-07-19T05:35:00;11.93;;;5.60;;
55114;SDS011;41010;53.252;5.786;2022-07-19T05:37:27;10.05;;;5.82;;
55114;SDS011;41010;53.252;5.786;2022-07-19T05:39:56;9.95;;;6.30;;
55114;SDS011;41010;53.252;5.786;2022-07-19T05:42:23;10.45;;;5.80;;
55114;SDS011;41010;53.252;5.786;2022-07-19T05:44:50;9.30;;;6.10;;
55114;SDS011;41010;53.252;5.786;2022-07-19T05:47:18;11.20;;;5.78;;
55114;SDS011;41010;53.252;5.786;2022-07-19T05:49:45;11.13;;;6.00;;
55114;SDS011;41010;53.252;5.786;2022-07-19T05:52:12;9.75;;;5.95;;
55114;SDS011;41010;53.252;5.786;2022-07-19T05:54:39;7.95;;;5.53;;
55114;SDS011;41010;53.252;5.786;2022-07-19T05:57:08;8.77;;;6.10;;
55114;SDS011;41010;53.252;5.786;2022-07-19T05:59:35;8.68;;;5.82;;
55114;SDS011;41010;53.252;5.786;2022-07-19T06:02:02;13.10;;;6.18;;
55114;SDS011;41010;53.252;5.786;2022-07-19T06:04:30;8.43;;;5.75;;
55114;SDS011;41010;53.252;5.786;2022-07-19T06:06:57;10.40;;;6.07;;
55114;SDS011;41010;53.252;5.786;2022-07-19T06:09:24;9.93;;;5.07;;
55114;SDS011;41010;53.252;5.786;2022-07-19T06:11:51;8.98;;;5.35;;
55114;SDS011;41010;53.252;5.786;2022-07-19T06:14:20;10.05;;;5.85;;
55114;SDS011;41010;53.252;5.786;2022-07-19T06:16:47;12.48;;;5.55;;
55114;SDS011;41010;53.252;5.786;2022-07-19T06:19:14;10.32;;;5.25;;
55114;SDS011;41010;53.252;5.786;2022-07-19T06:21:41;8.95;;;5.60;;
55114;SDS011;41010;53.252;5.786;2022-07-19T06:24:09;12.60;;;5.82;;
55114;SDS011;41010;53.252;5.786;2022-07-19T06:26:36;10.95;;;5.55;;
55114;SDS011;41010;53.252;5.786;2022-07-19T06:29:03;13.38;;;5.95;;
55114;SDS011;41010;53.252;5.786;2022-07-19T06:31:33;13.07;;;5.40;;
55114;SDS011;41010;53.252;5.786;2022-07-19T06:34:00;8.65;;;5.72;;
55114;SDS011;41010;53.252;5.786;2022-07-19T06:36:27;14.23;;;5.93;;
55114;SDS011;41010;53.252;5.786;2022-07-19T06:38:54;9.65;;;5.80;;
55114;SDS011;41010;53.252;5.786;2022-07-19T06:41:22;8.70;;;5.35;;
55114;SDS011;41010;53.252;5.786;2022-07-19T06:43:49;9.70;;;5.25;;
55114;SDS011;41010;53.252;5.786;2022-07-19T06:46:16;9.70;;;5.40;;
55114;SDS011;41010;53.252;5.786;2022-07-19T06:48:44;11.30;;;5.25;;
55114;SDS011;41010;53.252;5.786;2022-07-19T06:51:12;8.75;;;4.90;;
55114;SDS011;41010;53.252;5.786;2022-07-19T06:53:39;13.75;;;5.10;;
55114;SDS011;41010;53.252;5.786;2022-07-19T06:56:06;12.27;;;4.95;;
55114;SDS011;41010;53.252;5.786;2022-07-19T06:58:34;10.45;;;4.47;;
55114;SDS011;41010;53.252;5.786;2022-07-19T07:01:01;9.15;;;4.63;;
55114;SDS011;41010;53.252;5.786;2022-07-19T07:03:28;7.82;;;4.70;;
55114;SDS011;41010;53.252;5.786;2022-07-19T07:05:57;9.20;;;4.70;;
55114;SDS011;41010;53.252;5.786;2022-07-19T07:08:24;10.93;;;4.70;;
55114;SDS011;41010;53.252;5.786;2022-07-19T07:10:51;13.18;;;4.60;;
55114;SDS011;41010;53.252;5.786;2022-07-19T07:13:18;8.95;;;4.60;;
55114;SDS011;41010;53.252;5.786;2022-07-19T07:15:46;8.50;;;4.53;;
55114;SDS011;41010;53.252;5.786;2022-07-19T07:18:13;11.60;;;4.30;;
55114;SDS011;41010;53.252;5.786;2022-07-19T07:20:40;13.40;;;4.78;;
55114;SDS011;41010;53.252;5.786;2022-07-19T07:23:09;7.07;;;4.40;;
55114;SDS011;41010;53.252;5.786;2022-07-19T07:25:36;12.57;;;4.72;;
55114;SDS011;41010;53.252;5.786;2022-07-19T07:28:03;14.98;;;4.03;;
55114;SDS011;41010;53.252;5.786;2022-07-19T07:30:31;9.38;;;4.05;;
55114;SDS011;41010;53.252;5.786;2022-07-19T07:32:58;10.50;;;4.22;;
55114;SDS011;41010;53.252;5.786;2022-07-19T07:35:25;8.68;;;3.97;;
55114;SDS011;41010;53.252;5.786;2022-07-19T07:37:52;9.23;;;4.20;;
55114;SDS011;41010;53.252;5.786;2022-07-19T07:40:21;10.27;;;3.90;;
55114;SDS011;41010;53.252;5.786;2022-07-19T07:42:48;6.43;;;3.50;;
55114;SDS011;41010;53.252;5.786;2022-07-19T07:45:16;6.85;;;3.60;;
55114;SDS011;41010;53.252;5.786;2022-07-19T07:47:43;9.45;;;3.88;;
55114;SDS011;41010;53.252;5.786;2022-07-19T07:50:10;7.07;;;3.88;;
55114;SDS011;41010;53.252;5.786;2022-07-19T07:52:37;9.38;;;3.72;;
55114;SDS011;41010;53.252;5.786;2022-07-19T07:55:05;7.15;;;3.70;;
55114;SDS011;41010;53.252;5.786;2022-07-19T07:57:33;7.57;;;3.92;;
55114;SDS011;41010;53.252;5.786;2022-07-19T08:00:01;11.77;;;3.50;;
55114;SDS011;41010;53.252;5.786;2022-07-19T08:02:28;6.18;;;3.00;;
55114;SDS011;41010;53.252;5.786;2022-07-19T08:04:55;8.13;;;3.03;;
55114;SDS011;41010;53.252;5.786;2022-07-19T08:07:23;5.38;;;3.15;;
55114;SDS011;41010;53.252;5.786;2022-07-19T08:09:50;10.25;;;3.15;;
55114;SDS011;41010;53.252;5.786;2022-07-19T08:12:17;5.10;;;2.90;;
55114;SDS011;41010;53.252;5.786;2022-07-19T08:14:46;5.25;;;2.70;;
55114;SDS011;41010;53.252;5.786;2022-07-19T08:17:13;7.47;;;2.90;;
55114;SDS011;41010;53.252;5.786;2022-07-19T08:19:40;7.13;;;3.00;;
55114;SDS011;41010;53.252;5.786;2022-07-19T08:22:07;4.85;;;3.00;;
55114;SDS011;41010;53.252;5.786;2022-07-19T08:24:34;6.13;;;2.75;;
55114;SDS011;41010;53.252;5.786;2022-07-19T08:27:01;7.32;;;2.72;;
55114;SDS011;41010;53.252;5.786;2022-07-19T08:29:29;6.82;;;2.75;;
55114;SDS011;41010;53.252;5.786;2022-07-19T08:31:57;10.98;;;3.20;;
55114;SDS011;41010;53.252;5.786;2022-07-19T08:34:24;9.30;;;2.90;;
55114;SDS011;41010;53.252;5.786;2022-07-19T08:36:52;7.03;;;2.90;;
55114;SDS011;41010;53.252;5.786;2022-07-19T08:39:19;12.18;;;2.55;;
55114;SDS011;41010;53.252;5.786;2022-07-19T08:41:46;7.07;;;2.85;;
55114;SDS011;41010;53.252;5.786;2022-07-19T08:44:13;7.60;;;2.53;;
55114;SDS011;41010;53.252;5.786;2022-07-19T08:46:40;7.50;;;2.47;;
55114;SDS011;41010;53.252;5.786;2022-07-19T08:49:09;5.93;;;2.63;;
55114;SDS011;41010;53.252;5.786;2022-07-19T08:51:37;5.28;;;2.95;;
55114;SDS011;41010;53.252;5.786;2022-07-19T08:54:04;7.43;;;2.80;;
55114;SDS011;41010;53.252;5.786;2022-07-19T08:56:31;8.00;;;2.80;;
55114;SDS011;41010;53.252;5.786;2022-07-19T08:59:30;5.60;;;2.65;;
55114;SDS011;41010;53.252;5.786;2022-07-19T09:01:58;6.30;;;3.13;;
55114;SDS011;41010;53.252;5.786;2022-07-19T09:04:26;7.97;;;2.50;;
55114;SDS011;41010;53.252;5.786;2022-07-19T09:06:55;4.07;;;2.53;;
55114;SDS011;41010;53.252;5.786;2022-07-19T09:09:24;6.45;;;2.45;;
55114;SDS011;41010;53.252;5.786;2022-07-19T09:11:52;6.18;;;2.58;;
55114;SDS011;41010;53.252;5.786;2022-07-19T09:14:20;3.72;;;2.40;;
55114;SDS011;41010;53.252;5.786;2022-07-19T09:16:51;10.52;;;2.58;;
55114;SDS011;41010;53.252;5.786;2022-07-19T09:19:19;4.78;;;2.42;;
55114;SDS011;41010;53.252;5.786;2022-07-19T09:21:51;12.80;;;2.33;;
55114;SDS011;41010;53.252;5.786;2022-07-19T09:24:18;5.15;;;2.30;;
55114;SDS011;41010;53.252;5.786;2022-07-19T09:26:56;9.50;;;2.35;;
55114;SDS011;41010;53.252;5.786;2022-07-19T09:29:23;6.82;;;2.53;;
55114;SDS011;41010;53.252;5.786;2022-07-19T09:34:33;3.27;;;2.00;;
55114;SDS011;41010;53.252;5.786;2022-07-19T09:37:08;5.05;;;2.10;;
55114;SDS011;41010;53.252;5.786;2022-07-19T09:39:36;9.40;;;2.22;;
55114;SDS011;41010;53.252;5.786;2022-07-19T09:42:06;6.82;;;2.10;;
55114;SDS011;41010;53.252;5.786;2022-07-19T09:44:33;5.55;;;2.00;;
55114;SDS011;41010;53.252;5.786;2022-07-19T09:47:01;5.57;;;2.00;;
55114;SDS011;41010;53.252;5.786;2022-07-19T09:49:28;8.57;;;2.22;;
55114;SDS011;41010;53.252;5.786;2022-07-19T09:51:55;3.85;;;1.75;;
55114;SDS011;41010;53.252;5.786;2022-07-19T09:54:26;2.88;;;2.10;;
55114;SDS011;41010;53.252;5.786;2022-07-19T09:56:53;10.00;;;2.20;;
55114;SDS011;41010;53.252;5.786;2022-07-19T09:59:22;6.00;;;2.08;;
55114;SDS011;41010;53.252;5.786;2022-07-19T10:01:51;7.78;;;2.00;;
55114;SDS011;41010;53.252;5.786;2022-07-19T10:04:19;7.13;;;2.20;;
55114;SDS011;41010;53.252;5.786;2022-07-19T10:06:48;5.07;;;2.30;;
55114;SDS011;41010;53.252;5.786;2022-07-19T10:09:15;4.45;;;1.77;;
55114;SDS011;41010;53.252;5.786;2022-07-19T10:11:44;6.57;;;2.15;;
55114;SDS011;41010;53.252;5.786;2022-07-19T10:14:12;9.05;;;2.28;;
55114;SDS011;41010;53.252;5.786;2022-07-19T10:16:42;5.60;;;2.20;;
55114;SDS011;41010;53.252;5.786;2022-07-19T10:19:12;5.43;;;2.22;;
55114;SDS011;41010;53.252;5.786;2022-07-19T10:21:42;6.93;;;2.33;;
55114;SDS011;41010;53.252;5.786;2022-07-19T10:24:09;6.60;;;1.95;;
55114;SDS011;41010;53.252;5.786;2022-07-19T10:26:37;9.57;;;2.28;;
55114;SDS011;41010;53.252;5.786;2022-07-19T10:29:09;4.28;;;2.30;;
55114;SDS011;41010;53.252;5.786;2022-07-19T10:31:37;4.47;;;2.08;;
55114;SDS011;41010;53.252;5.786;2022-07-19T10:34:06;4.93;;;2.35;;
55114;SDS011;41010;53.252;5.786;2022-07-19T10:36:34;4.05;;;2.17;;
55114;SDS011;41010;53.252;5.786;2022-07-19T10:39:25;7.20;;;2.40;;
55114;SDS011;41010;53.252;5.786;2022-07-19T10:42:11;4.60;;;2.00;;
55114;SDS011;41010;53.252;5.786;2022-07-19T10:47:34;7.30;;;1.92;;
55114;SDS011;41010;53.252;5.786;2022-07-19T10:50:21;6.18;;;2.00;;
55114;SDS011;41010;53.252;5.786;2022-07-19T10:52:49;6.05;;;2.20;;
55114;SDS011;41010;53.252;5.786;2022-07-19T10:55:26;4.70;;;2.17;;
55114;SDS011;41010;53.252;5.786;2022-07-19T10:58:07;4.80;;;1.85;;
55114;SDS011;41010;53.252;5.786;2022-07-19T11:00:40;6.30;;;2.05;;
55114;SDS011;41010;53.252;5.786;2022-07-19T11:03:28;4.03;;;2.00;;
55114;SDS011;41010;53.252;5.786;2022-07-19T11:05:58;10.38;;;2.33;;
55114;SDS011;41010;53.252;5.786;2022-07-19T11:08:32;6.60;;;2.17;;
55114;SDS011;41010;53.252;5.786;2022-07-19T11:11:03;8.27;;;2.25;;
55114;SDS011;41010;53.252;5.786;2022-07-19T11:13:30;4.85;;;2.10;;
55114;SDS011;41010;53.252;5.786;2022-07-19T11:15:58;7.13;;;2.30;;
55114;SDS011;41010;53.252;5.786;2022-07-19T11:18:25;6.32;;;2.03;;
55114;SDS011;41010;53.252;5.786;2022-07-19T11:20:55;3.33;;;2.03;;
55114;SDS011;41010;53.252;5.786;2022-07-19T11:23:23;4.75;;;2.22;;
55114;SDS011;41010;53.252;5.786;2022-07-19T11:25:51;5.10;;;2.15;;
55114;SDS011;41010;53.252;5.786;2022-07-19T11:28:21;4.95;;;2.00;;
55114;SDS011;41010;53.252;5.786;2022-07-19T11:30:49;2.65;;;1.80;;
55114;SDS011;41010;53.252;5.786;2022-07-19T11:33:17;4.45;;;2.15;;
55114;SDS011;41010;53.252;5.786;2022-07-19T11:35:59;5.85;;;2.15;;
55114;SDS011;41010;53.252;5.786;2022-07-19T11:38:33;5.85;;;2.30;;
55114;SDS011;41010;53.252;5.786;2022-07-19T11:41:00;4.25;;;2.30;;
55114;SDS011;41010;53.252;5.786;2022-07-19T11:43:27;6.97;;;2.33;;
55114;SDS011;41010;53.252;5.786;2022-07-19T11:45:55;7.05;;;2.05;;
55114;SDS011;41010;53.252;5.786;2022-07-19T11:48:23;6.43;;;1.92;;
55114;SDS011;41010;53.252;5.786;2022-07-19T11:50:56;5.60;;;2.00;;
55114;SDS011;41010;53.252;5.786;2022-07-19T11:53:25;3.00;;;2.00;;
55114;SDS011;41010;53.252;5.786;2022-07-19T11:55:52;3.00;;;2.10;;
55114;SDS011;41010;53.252;5.786;2022-07-19T11:58:21;2.63;;;1.90;;
55114;SDS011;41010;53.252;5.786;2022-07-19T12:00:48;2.97;;;1.80;;
55114;SDS011;41010;53.252;5.786;2022-07-19T12:03:16;5.57;;;2.00;;
55114;SDS011;41010;53.252;5.786;2022-07-19T12:05:53;9.13;;;2.50;;
55114;SDS011;41010;53.252;5.786;2022-07-19T12:08:22;5.45;;;1.98;;
55114;SDS011;41010;53.252;5.786;2022-07-19T12:10:59;3.55;;;2.10;;
55114;SDS011;41010;53.252;5.786;2022-07-19T12:13:28;4.80;;;2.60;;
55114;SDS011;41010;53.252;5.786;2022-07-19T12:15:56;5.50;;;2.30;;
55114;SDS011;41010;53.252;5.786;2022-07-19T12:21:21;4.78;;;2.40;;
55114;SDS011;41010;53.252;5.786;2022-07-19T12:26:35;5.13;;;2.35;;
55114;SDS011;41010;53.252;5.786;2022-07-19T12:29:15;4.63;;;2.30;;
55114;SDS011;41010;53.252;5.786;2022-07-19T12:31:43;3.08;;;2.50;;
55114;SDS011;41010;53.252;5.786;2022-07-19T12:34:10;3.78;;;2.40;;
55114;SDS011;41010;53.252;5.786;2022-07-19T12:36:38;5.30;;;2.30;;
55114;SDS011;41010;53.252;5.786;2022-07-19T12:39:15;3.85;;;2.53;;
55114;SDS011;41010;53.252;5.786;2022-07-19T12:41:52;5.50;;;2.10;;
55114;SDS011;41010;53.252;5.786;2022-07-19T12:44:20;5.30;;;2.47;;
55114;SDS011;41010;53.252;5.786;2022-07-19T12:46:47;4.80;;;2.53;;
55114;SDS011;41010;53.252;5.786;2022-07-19T12:49:14;6.43;;;2.38;;
55114;SDS011;41010;53.252;5.786;2022-07-19T12:51:41;4.45;;;2.80;;
55114;SDS011;41010;53.252;5.786;2022-07-19T12:54:09;4.38;;;2.50;;
55114;SDS011;41010;53.252;5.786;2022-07-19T12:56:36;3.47;;;2.33;;
55114;SDS011;41010;53.252;5.786;2022-07-19T12:59:05;4.05;;;2.70;;
55114;SDS011;41010;53.252;5.786;2022-07-19T13:01:50;5.97;;;2.35;;
55114;SDS011;41010;53.252;5.786;2022-07-19T13:04:17;3.42;;;2.60;;
55114;SDS011;41010;53.252;5.786;2022-07-19T13:06:46;4.03;;;2.85;;
55114;SDS011;41010;53.252;5.786;2022-07-19T13:09:13;8.25;;;2.63;;
55114;SDS011;41010;53.252;5.786;2022-07-19T13:11:41;6.60;;;2.70;;
55114;SDS011;41010;53.252;5.786;2022-07-19T13:14:10;4.22;;;2.60;;
55114;SDS011;41010;53.252;5.786;2022-07-19T13:16:37;4.05;;;2.70;;
55114;SDS011;41010;53.252;5.786;2022-07-19T13:19:05;7.82;;;2.50;;
55114;SDS011;41010;53.252;5.786;2022-07-19T13:21:32;3.33;;;2.80;;
55114;SDS011;41010;53.252;5.786;2022-07-19T13:23:59;8.35;;;3.13;;
55114;SDS011;41010;53.252;5.786;2022-07-19T13:26:27;7.97;;;3.05;;
55114;SDS011;41010;53.252;5.786;2022-07-19T13:28:54;6.35;;;2.70;;
55114;SDS011;41010;53.252;5.786;2022-07-19T13:31:22;6.78;;;2.67;;
55114;SDS011;41010;53.252;5.786;2022-07-19T13:33:50;5.68;;;2.85;;
55114;SDS011;41010;53.252;5.786;2022-07-19T13:36:17;4.13;;;2.83;;
55114;SDS011;41010;53.252;5.786;2022-07-19T13:38:44;6.47;;;3.00;;
55114;SDS011;41010;53.252;5.786;2022-07-19T13:41:13;9.13;;;3.10;;
55114;SDS011;41010;53.252;5.786;2022-07-19T13:43:42;10.43;;;3.22;;
55114;SDS011;41010;53.252;5.786;2022-07-19T13:46:09;6.20;;;3.08;;
55114;SDS011;41010;53.252;5.786;2022-07-19T13:48:38;5.43;;;3.00;;
55114;SDS011;41010;53.252;5.786;2022-07-19T13:51:06;7.13;;;3.08;;
55114;SDS011;41010;53.252;5.786;2022-07-19T13:53:34;6.90;;;3.10;;
55114;SDS011;41010;53.252;5.786;2022-07-19T13:56:01;8.25;;;3.40;;
55114;SDS011;41010;53.252;5.786;2022-07-19T13:58:28;6.75;;;4.20;;
55114;SDS011;41010;53.252;5.786;2022-07-19T14:00:56;4.88;;;3.40;;
55114;SDS011;41010;53.252;5.786;2022-07-19T14:03:23;6.75;;;3.50;;
55114;SDS011;41010;53.252;5.786;2022-07-19T14:05:52;8.25;;;3.60;;
55114;SDS011;41010;53.252;5.786;2022-07-19T14:08:19;7.55;;;3.50;;
55114;SDS011;41010;53.252;5.786;2022-07-19T14:10:46;5.10;;;3.08;;
55114;SDS011;41010;53.252;5.786;2022-07-19T14:13:13;4.40;;;3.53;;
55114;SDS011;41010;53.252;5.786;2022-07-19T14:15:41;6.40;;;3.50;;
55114;SDS011;41010;53.252;5.786;2022-07-19T14:18:09;8.45;;;3.30;;
55114;SDS011;41010;53.252;5.786;2022-07-19T14:20:37;7.15;;;3.50;;
55114;SDS011;41010;53.252;5.786;2022-07-19T14:23:07;4.78;;;3.03;;
55114;SDS011;41010;53.252;5.786;2022-07-19T14:25:34;6.80;;;3.35;;
55114;SDS011;41010;53.252;5.786;2022-07-19T14:28:01;7.57;;;3.28;;
55114;SDS011;41010;53.252;5.786;2022-07-19T14:30:29;7.57;;;3.55;;
55114;SDS011;41010;53.252;5.786;2022-07-19T14:32:56;9.15;;;3.60;;
55114;SDS011;41010;53.252;5.786;2022-07-19T14:35:23;3.97;;;3.40;;
55114;SDS011;41010;53.252;5.786;2022-07-19T14:37:50;6.57;;;3.33;;
55114;SDS011;41010;53.252;5.786;2022-07-19T14:40:19;7.15;;;3.58;;
55114;SDS011;41010;53.252;5.786;2022-07-19T14:42:47;5.25;;;3.92;;
55114;SDS011;41010;53.252;5.786;2022-07-19T14:45:14;6.47;;;3.80;;
55114;SDS011;41010;53.252;5.786;2022-07-19T14:47:41;7.32;;;3.85;;
55114;SDS011;41010;53.252;5.786;2022-07-19T14:50:09;8.63;;;3.80;;
55114;SDS011;41010;53.252;5.786;2022-07-19T14:52:37;5.22;;;3.30;;
55114;SDS011;41010;53.252;5.786;2022-07-19T14:55:05;4.78;;;3.63;;
55114;SDS011;41010;53.252;5.786;2022-07-19T14:57:34;4.68;;;3.83;;
55114;SDS011;41010;53.252;5.786;2022-07-19T15:00:02;9.57;;;4.15;;